Time;durP1;ratioP1;P1;durP2;ratioP2;P2;SDS_P1;SDS_P2;PMS_P1;PMS_P2;Temp;Humidity;BMP_temperature;BMP_pressure;BME280_temperature;BME280_humidity;BME280_pressure;Samples;Min_cycle;Max_cycle;Signal;HPM_P1;HPM_P2
2023/12/09 00:01:08;;;;;;;23.50;15.25;;;22.60;39.60;;;;;;6171376;28;83443;-64
2023/12/09 00:04:09;;;;;;;25.75;16.27;;;22.60;39.50;;;;;;6171757;28;83190;-63
2023/12/09 00:07:09;;;;;;;26.10;16.70;;;22.50;39.30;;;;;;6171398;28;82982;-64
2023/12/09 00:10:10;;;;;;;24.13;16.70;;;22.50;39.30;;;;;;6170438;28;83231;-65
2023/12/09 00:13:10;;;;;;;23.40;15.27;;;22.50;39.20;;;;;;6162700;28;83352;-65
2023/12/09 00:16:11;;;;;;;22.23;16.13;;;22.50;39.30;;;;;;6168140;28;83197;-63
2023/12/09 00:19:12;;;;;;;26.33;17.58;;;22.50;39.50;;;;;;6168834;28;83437;-65
2023/12/09 00:22:13;;;;;;;25.35;16.27;;;22.60;39.40;;;;;;6168604;28;83373;-64
2023/12/09 00:25:14;;;;;;;23.75;16.10;;;22.50;39.60;;;;;;6168967;28;83101;-64
2023/12/09 00:28:14;;;;;;;25.45;17.05;;;22.50;39.20;;;;;;6166800;28;82949;-63
2023/12/09 00:31:15;;;;;;;26.88;17.33;;;22.50;39.10;;;;;;6165054;28;83112;-64
2023/12/09 00:34:15;;;;;;;25.15;16.20;;;22.50;39.10;;;;;;6170304;28;83733;-65
2023/12/09 00:37:15;;;;;;;22.33;15.57;;;22.50;39.00;;;;;;6170611;28;83664;-64
2023/12/09 00:40:16;;;;;;;24.77;16.45;;;22.50;39.30;;;;;;6172785;28;85987;-64
2023/12/09 00:43:16;;;;;;;24.05;16.13;;;22.50;39.20;;;;;;6156758;28;83469;-64
2023/12/09 00:46:17;;;;;;;24.58;16.90;;;22.50;39.20;;;;;;6170477;28;83732;-66
2023/12/09 00:49:17;;;;;;;26.60;17.15;;;22.50;39.10;;;;;;6175420;28;83972;-64
2023/12/09 00:52:18;;;;;;;26.38;16.77;;;22.50;39.20;;;;;;6174922;28;83318;-63
2023/12/09 00:55:18;;;;;;;23.55;15.57;;;22.50;39.10;;;;;;6174691;28;83338;-64
2023/12/09 00:58:19;;;;;;;24.90;16.67;;;22.50;39.50;;;;;;6164128;28;83123;-64
2023/12/09 01:01:19;;;;;;;23.77;16.48;;;22.50;39.00;;;;;;6174840;28;83508;-62
2023/12/09 01:04:21;;;;;;;24.30;16.55;;;22.50;39.10;;;;;;6173983;28;83654;-63
2023/12/09 01:07:21;;;;;;;28.17;17.08;;;22.40;39.30;;;;;;6175237;28;85055;-63
2023/12/09 01:10:22;;;;;;;25.98;15.98;;;22.50;39.30;;;;;;6175502;28;82997;-63
2023/12/09 01:13:22;;;;;;;25.02;16.08;;;22.50;39.50;;;;;;6170924;28;83976;-63
2023/12/09 01:16:23;;;;;;;24.38;17.73;;;22.50;39.60;;;;;;6166442;28;83113;-63
2023/12/09 01:19:23;;;;;;;26.30;16.27;;;22.50;39.60;;;;;;6169002;28;85357;-63
2023/12/09 01:22:24;;;;;;;28.13;18.05;;;22.50;39.80;;;;;;6173479;28;83541;-63
2023/12/09 01:25:24;;;;;;;26.70;16.23;;;22.50;39.80;;;;;;6174886;28;83691;-64
2023/12/09 01:28:25;;;;;;;25.90;17.23;;;22.40;39.80;;;;;;6168632;28;83085;-64
2023/12/09 01:31:25;;;;;;;23.52;14.77;;;22.50;40.10;;;;;;6170943;28;82799;-63
2023/12/09 01:34:25;;;;;;;27.00;17.15;;;22.40;39.90;;;;;;6172888;28;82957;-64
2023/12/09 01:37:26;;;;;;;23.77;16.02;;;22.40;39.60;;;;;;6171134;28;83004;-62
2023/12/09 01:40:26;;;;;;;25.90;16.98;;;22.50;39.60;;;;;;6171635;28;83731;-63
2023/12/09 01:43:27;;;;;;;29.95;18.38;;;22.50;39.40;;;;;;6173548;28;84242;-62
2023/12/09 01:46:28;;;;;;;25.90;17.52;;;22.50;39.40;;;;;;6173170;28;83085;-63
2023/12/09 01:49:28;;;;;;;28.45;17.50;;;22.40;39.10;;;;;;6173639;28;82949;-62
2023/12/09 01:52:29;;;;;;;27.48;17.75;;;22.50;39.00;;;;;;6171905;28;83204;-64
2023/12/09 01:55:29;;;;;;;29.40;18.33;;;22.50;39.00;;;;;;6168973;28;82873;-63
2023/12/09 01:58:30;;;;;;;27.08;18.35;;;22.50;38.90;;;;;;6174656;28;83268;-64
2023/12/09 02:01:30;;;;;;;28.00;17.80;;;22.40;38.60;;;;;;6172543;28;82758;-63
2023/12/09 02:04:31;;;;;;;28.80;18.63;;;22.40;38.60;;;;;;6173361;28;83427;-63
2023/12/09 02:07:31;;;;;;;27.95;18.33;;;22.40;38.30;;;;;;6173455;28;83340;-65
2023/12/09 02:10:32;;;;;;;27.30;18.08;;;22.40;38.20;;;;;;6173574;28;84220;-64
2023/12/09 02:13:32;;;;;;;28.40;18.25;;;22.40;38.30;;;;;;6170235;28;83069;-63
2023/12/09 02:16:33;;;;;;;27.45;17.42;;;22.40;38.80;;;;;;6170679;28;85583;-65
2023/12/09 02:19:33;;;;;;;26.55;18.35;;;22.40;38.70;;;;;;6170554;28;83026;-65
2023/12/09 02:22:33;;;;;;;26.70;16.98;;;22.40;39.10;;;;;;6169327;28;83351;-66
2023/12/09 02:25:34;;;;;;;23.75;15.50;;;22.40;39.30;;;;;;6150689;28;85114;-66
2023/12/09 02:28:34;;;;;;;23.38;15.60;;;22.40;40.20;;;;;;6152539;28;83859;-64
2023/12/09 02:31:35;;;;;;;27.15;17.05;;;22.40;40.10;;;;;;6167138;28;83412;-64
2023/12/09 02:34:35;;;;;;;23.95;15.95;;;22.40;39.40;;;;;;6170500;28;83608;-63
2023/12/09 02:37:36;;;;;;;25.55;16.45;;;22.40;39.20;;;;;;6164892;28;83267;-65
2023/12/09 02:40:36;;;;;;;17.67;12.55;;;22.40;39.70;;;;;;6165786;28;94227;-64
2023/12/09 02:43:37;;;;;;;20.38;13.73;;;22.40;40.60;;;;;;6173107;28;83385;-65
2023/12/09 02:46:37;;;;;;;18.55;12.52;;;22.30;40.60;;;;;;6173546;28;84509;-65
2023/12/09 02:49:38;;;;;;;18.70;12.00;;;22.40;40.30;;;;;;6159947;28;83746;-65
2023/12/09 02:52:38;;;;;;;21.45;13.48;;;22.40;40.90;;;;;;6172599;28;84331;-65
2023/12/09 02:55:39;;;;;;;19.88;13.07;;;22.30;40.10;;;;;;6166736;28;82859;-65
2023/12/09 02:58:39;;;;;;;18.52;12.75;;;22.30;40.10;;;;;;6172170;28;83680;-65
2023/12/09 03:01:39;;;;;;;19.35;12.98;;;22.30;40.40;;;;;;6168989;28;83051;-66
2023/12/09 03:04:40;;;;;;;17.48;11.68;;;22.30;40.70;;;;;;6161617;28;83526;-63
2023/12/09 03:07:40;;;;;;;18.27;11.95;;;22.40;40.60;;;;;;6170738;28;83783;-62
2023/12/09 03:10:41;;;;;;;21.83;15.10;;;22.30;40.30;;;;;;6159873;28;83440;-62
2023/12/09 03:13:41;;;;;;;19.38;12.10;;;22.30;39.60;;;;;;6172243;28;82799;-63
2023/12/09 03:16:42;;;;;;;18.45;13.00;;;22.30;39.90;;;;;;6172777;28;84004;-64
2023/12/09 03:19:42;;;;;;;18.50;12.52;;;22.30;39.90;;;;;;6173368;28;83116;-63
2023/12/09 03:22:43;;;;;;;19.38;13.00;;;22.40;40.00;;;;;;6172767;28;83300;-64
2023/12/09 03:25:43;;;;;;;19.15;12.02;;;22.40;39.80;;;;;;6169841;28;83348;-65
2023/12/09 03:28:44;;;;;;;20.00;13.25;;;22.30;39.70;;;;;;6172006;28;83406;-66
2023/12/09 03:31:44;;;;;;;22.23;15.13;;;22.30;39.70;;;;;;6157590;28;86426;-66
2023/12/09 03:34:45;;;;;;;25.40;16.40;;;22.30;39.40;;;;;;6166640;28;83269;-66
2023/12/09 03:37:45;;;;;;;23.05;14.75;;;22.30;39.50;;;;;;6171910;28;83176;-66
2023/12/09 03:40:46;;;;;;;24.52;15.30;;;22.30;39.70;;;;;;6164786;28;83400;-66
2023/12/09 03:43:46;;;;;;;22.00;14.30;;;22.40;39.50;;;;;;6164501;28;88910;-66
2023/12/09 03:46:47;;;;;;;22.25;14.95;;;22.30;39.30;;;;;;6147697;28;83641;-67
2023/12/09 03:49:47;;;;;;;24.10;15.75;;;22.30;39.40;;;;;;6148224;28;84283;-65
2023/12/09 03:52:48;;;;;;;20.80;13.50;;;22.30;39.30;;;;;;6147475;28;84105;-65
2023/12/09 03:55:48;;;;;;;23.08;14.48;;;22.30;39.20;;;;;;6148035;28;86638;-64
2023/12/09 03:58:49;;;;;;;20.42;11.98;;;22.30;39.30;;;;;;6146825;28;83887;-64
2023/12/09 04:01:50;;;;;;;21.60;14.20;;;22.30;39.30;;;;;;6146817;28;83698;-63
2023/12/09 04:04:50;;;;;;;23.02;15.15;;;22.30;39.20;;;;;;6147585;28;83025;-63
2023/12/09 04:07:51;;;;;;;25.33;14.57;;;22.30;39.10;;;;;;6145196;28;83503;-62
2023/12/09 04:10:51;;;;;;;18.90;12.55;;;22.30;39.40;;;;;;6146602;28;85321;-63
2023/12/09 04:13:52;;;;;;;26.85;17.00;;;22.30;39.20;;;;;;6149549;28;83703;-61
2023/12/09 04:16:52;;;;;;;24.88;16.33;;;22.30;39.20;;;;;;6151282;28;83374;-63
2023/12/09 04:19:53;;;;;;;24.13;15.65;;;22.30;38.40;;;;;;6150240;28;83983;-65
2023/12/09 04:22:53;;;;;;;27.98;18.30;;;22.40;38.40;;;;;;6151165;28;83401;-64
2023/12/09 04:25:54;;;;;;;27.10;16.92;;;22.40;37.90;;;;;;6151134;28;83455;-64
2023/12/09 04:28:54;;;;;;;26.65;17.52;;;22.40;37.60;;;;;;6126820;28;83482;-64
2023/12/09 04:31:54;;;;;;;25.55;17.13;;;22.40;37.60;;;;;;6149171;28;83764;-63
2023/12/09 04:34:55;;;;;;;24.92;16.92;;;22.40;37.50;;;;;;6148191;28;83590;-65
2023/12/09 04:37:55;;;;;;;27.17;16.75;;;22.50;37.40;;;;;;6151558;28;82992;-68
2023/12/09 04:40:56;;;;;;;28.70;16.98;;;22.50;37.30;;;;;;6149997;28;83061;-66
2023/12/09 04:43:56;;;;;;;24.67;15.63;;;22.60;37.40;;;;;;6150823;28;83118;-68
2023/12/09 04:46:57;;;;;;;26.27;16.50;;;22.60;37.50;;;;;;6152336;28;84453;-69
2023/12/09 04:49:57;;;;;;;27.17;16.33;;;22.60;37.50;;;;;;6151787;28;83383;-63
2023/12/09 04:52:58;;;;;;;22.95;14.52;;;22.60;37.60;;;;;;6145283;28;83989;-64
2023/12/09 04:55:58;;;;;;;23.48;15.13;;;22.70;37.70;;;;;;6152050;28;83305;-66
2023/12/09 04:58:59;;;;;;;23.52;14.73;;;22.70;37.70;;;;;;6150986;28;83496;-67
2023/12/09 05:01:59;;;;;;;23.27;15.00;;;22.70;37.70;;;;;;6151352;28;83240;-68
2023/12/09 05:05:00;;;;;;;21.05;14.05;;;22.80;37.60;;;;;;6151169;28;83430;-68
2023/12/09 05:08:00;;;;;;;22.88;13.38;;;22.80;37.60;;;;;;6137578;28;83108;-67
2023/12/09 05:11:01;;;;;;;20.92;13.38;;;22.80;37.60;;;;;;6151746;28;83018;-67
2023/12/09 05:14:01;;;;;;;22.25;14.00;;;22.80;37.40;;;;;;6174642;28;84179;-66
2023/12/09 05:17:02;;;;;;;23.85;13.93;;;22.80;37.40;;;;;;6174092;28;83406;-65
2023/12/09 05:20:03;;;;;;;21.40;13.25;;;22.80;37.20;;;;;;6170846;28;83708;-68
2023/12/09 05:23:04;;;;;;;20.38;13.48;;;22.80;37.10;;;;;;6170952;28;83319;-67
2023/12/09 05:26:04;;;;;;;20.58;12.57;;;22.80;37.10;;;;;;6168897;28;83491;-62
2023/12/09 05:29:05;;;;;;;20.95;13.90;;;22.80;37.20;;;;;;6161572;28;83786;-66
2023/12/09 05:32:07;;;;;;;20.67;12.88;;;22.80;37.00;;;;;;6174277;28;85075;-64
2023/12/09 05:35:08;;;;;;;19.83;13.45;;;22.80;37.00;;;;;;6173579;28;84249;-65
2023/12/09 05:38:08;;;;;;;20.75;13.82;;;22.90;37.00;;;;;;6169523;28;85626;-66
2023/12/09 05:41:09;;;;;;;22.55;12.90;;;22.90;37.10;;;;;;6171172;28;83133;-66
2023/12/09 05:44:09;;;;;;;21.15;13.85;;;22.90;37.10;;;;;;6172947;28;83335;-63
2023/12/09 05:47:10;;;;;;;19.75;13.60;;;22.90;37.00;;;;;;6172983;28;82940;-62
2023/12/09 05:50:10;;;;;;;20.63;13.38;;;22.90;37.00;;;;;;6173726;28;82784;-63
2023/12/09 05:53:11;;;;;;;19.15;13.25;;;22.90;37.00;;;;;;6161625;28;84841;-61
2023/12/09 05:56:14;;;;;;;21.92;14.10;;;22.90;37.00;;;;;;6164170;28;84909;-61
2023/12/09 05:59:14;;;;;;;24.98;15.02;;;22.90;36.70;;;;;;6171431;28;83242;-61
2023/12/09 06:02:15;;;;;;;22.52;14.15;;;22.90;36.80;;;;;;6168335;28;83054;-62
2023/12/09 06:05:15;;;;;;;23.30;14.50;;;22.90;36.80;;;;;;6166882;28;83262;-62
2023/12/09 06:08:16;;;;;;;24.63;13.80;;;22.90;36.90;;;;;;6172386;28;83169;-65
2023/12/09 06:11:16;;;;;;;22.00;14.32;;;22.90;37.00;;;;;;6171266;28;83984;-63
2023/12/09 06:14:17;;;;;;;22.08;14.05;;;22.90;36.90;;;;;;6173860;28;84290;-65
2023/12/09 06:17:17;;;;;;;26.92;14.45;;;22.90;37.10;;;;;;6172310;28;84057;-66
2023/12/09 06:20:18;;;;;;;22.02;14.75;;;22.80;37.00;;;;;;6171472;28;84206;-64
2023/12/09 06:23:18;;;;;;;21.13;14.95;;;22.80;37.10;;;;;;6168709;28;84216;-66
2023/12/09 06:26:19;;;;;;;23.52;13.98;;;22.80;37.50;;;;;;6173131;28;83238;-63
2023/12/09 06:29:19;;;;;;;23.10;14.77;;;22.80;37.30;;;;;;6172790;28;83198;-61
2023/12/09 06:32:20;;;;;;;23.48;15.63;;;22.80;36.90;;;;;;6167871;28;84061;-67
2023/12/09 06:35:20;;;;;;;24.83;15.88;;;22.80;37.10;;;;;;6168183;28;83720;-65
2023/12/09 06:38:21;;;;;;;23.60;14.57;;;22.80;37.10;;;;;;6171376;28;83472;-64
2023/12/09 06:41:21;;;;;;;22.25;14.80;;;22.80;37.10;;;;;;6167433;28;83242;-65
2023/12/09 06:44:22;;;;;;;21.85;14.50;;;22.80;37.10;;;;;;6169772;28;83361;-61
2023/12/09 06:47:23;;;;;;;22.45;15.13;;;22.80;37.20;;;;;;6171940;28;83489;-61
2023/12/09 06:50:25;;;;;;;22.75;14.73;;;22.80;36.90;;;;;;6168252;28;87845;-63
2023/12/09 06:53:26;;;;;;;22.65;15.32;;;22.70;37.10;;;;;;6168223;28;84180;-63
2023/12/09 06:56:26;;;;;;;24.27;14.48;;;22.70;36.80;;;;;;6165715;28;83443;-60
2023/12/09 06:59:27;;;;;;;23.73;15.70;;;22.70;36.60;;;;;;6170790;28;86978;-61
2023/12/09 07:02:28;;;;;;;25.77;16.33;;;22.70;36.50;;;;;;6171453;28;83176;-62
2023/12/09 07:05:29;;;;;;;24.40;16.70;;;22.70;36.30;;;;;;6171046;28;83065;-61
2023/12/09 07:08:29;;;;;;;23.92;16.20;;;22.60;36.10;;;;;;6163836;28;83207;-61
2023/12/09 07:11:30;;;;;;;24.50;16.10;;;22.60;35.90;;;;;;6170868;28;83512;-62
2023/12/09 07:14:30;;;;;;;25.88;16.52;;;22.60;36.30;;;;;;6171525;28;84361;-64
2023/12/09 07:17:31;;;;;;;31.23;17.98;;;22.60;36.60;;;;;;6169320;28;83132;-61
2023/12/09 07:20:31;;;;;;;32.97;16.60;;;22.60;36.70;;;;;;6167985;28;83760;-62
2023/12/09 07:23:32;;;;;;;29.45;16.88;;;22.50;36.70;;;;;;6171444;28;83216;-63
2023/12/09 07:26:32;;;;;;;30.73;18.15;;;22.50;36.90;;;;;;6171315;28;83068;-62
2023/12/09 07:29:33;;;;;;;29.23;18.42;;;22.50;36.70;;;;;;6168764;28;84535;-62
2023/12/09 07:32:33;;;;;;;25.80;17.70;;;22.50;36.40;;;;;;6169487;28;84465;-62
2023/12/09 07:35:34;;;;;;;28.33;17.92;;;22.50;36.40;;;;;;6169687;28;83042;-61
2023/12/09 07:38:34;;;;;;;33.55;18.20;;;22.50;36.60;;;;;;6171126;28;83965;-63
2023/12/09 07:41:35;;;;;;;25.40;16.65;;;22.50;37.10;;;;;;6170284;28;83078;-61
2023/12/09 07:44:35;;;;;;;30.85;17.95;;;22.50;37.40;;;;;;6171918;28;83993;-61
2023/12/09 07:47:36;;;;;;;24.73;17.10;;;22.50;37.20;;;;;;6165191;28;83642;-61
2023/12/09 07:50:36;;;;;;;30.38;17.50;;;22.50;37.70;;;;;;6170035;28;83346;-61
2023/12/09 07:53:37;;;;;;;25.90;17.85;;;22.50;37.80;;;;;;6167526;28;83190;-62
2023/12/09 07:56:37;;;;;;;30.75;18.02;;;22.50;38.00;;;;;;6166945;28;84081;-60
2023/12/09 07:59:38;;;;;;;29.80;18.75;;;22.50;38.70;;;;;;6169351;28;83040;-60
2023/12/09 08:02:38;;;;;;;31.10;18.75;;;22.50;38.60;;;;;;6166104;28;83317;-59
2023/12/09 08:05:40;;;;;;;39.78;22.27;;;22.50;39.00;;;;;;6168380;28;83517;-62
2023/12/09 08:08:40;;;;;;;31.88;20.85;;;22.60;39.80;;;;;;6164818;28;86725;-61
2023/12/09 08:11:41;;;;;;;37.35;21.90;;;22.60;39.60;;;;;;6183342;28;83853;-60
2023/12/09 08:14:42;;;;;;;29.50;19.00;;;22.60;39.60;;;;;;6153344;28;83744;-60
2023/12/09 08:17:42;;;;;;;35.60;21.05;;;22.60;39.70;;;;;;6150414;28;83385;-61
2023/12/09 08:20:43;;;;;;;39.22;20.45;;;22.60;39.60;;;;;;6167253;28;83456;-60
2023/12/09 08:23:43;;;;;;;30.92;19.08;;;22.60;39.40;;;;;;6169962;28;83532;-62
2023/12/09 08:26:44;;;;;;;29.98;18.55;;;22.70;39.30;;;;;;6166955;28;83757;-62
2023/12/09 08:29:45;;;;;;;32.72;20.05;;;22.70;39.30;;;;;;6163002;28;83193;-60
2023/12/09 08:32:45;;;;;;;32.65;19.25;;;22.70;38.90;;;;;;6168397;28;83354;-61
2023/12/09 08:35:46;;;;;;;27.25;17.60;;;22.70;38.60;;;;;;6165095;28;83551;-61
2023/12/09 08:38:46;;;;;;;31.05;18.85;;;22.80;38.60;;;;;;6168397;28;83983;-61
2023/12/09 08:41:47;;;;;;;27.48;17.30;;;22.80;38.70;;;;;;6169269;28;85261;-60
2023/12/09 08:44:48;;;;;;;27.50;17.17;;;22.80;38.70;;;;;;6170764;28;83677;-61
2023/12/09 08:47:48;;;;;;;26.73;16.83;;;22.90;38.20;;;;;;6169315;28;87115;-63
2023/12/09 08:50:49;;;;;;;27.98;17.65;;;22.90;38.00;;;;;;6171094;28;84087;-63
2023/12/09 08:53:49;;;;;;;29.05;17.88;;;22.90;38.20;;;;;;6170913;28;83690;-57
2023/12/09 08:56:50;;;;;;;24.50;16.55;;;22.90;38.30;;;;;;6164918;28;87547;-59
2023/12/09 08:59:50;;;;;;;25.67;15.93;;;23.00;38.20;;;;;;6169880;28;83626;-59
2023/12/09 09:02:55;;;;;;;29.40;17.20;;;23.00;38.10;;;;;;6169755;28;83366;-59
2023/12/09 09:05:55;;;;;;;28.83;16.70;;;23.00;38.20;;;;;;6167830;28;83602;-59
2023/12/09 09:08:56;;;;;;;29.67;16.20;;;23.00;38.10;;;;;;6172286;28;82947;-60
2023/12/09 09:11:56;;;;;;;27.15;17.20;;;23.10;38.10;;;;;;6167292;28;83395;-58
2023/12/09 09:14:57;;;;;;;24.65;16.05;;;23.10;38.30;;;;;;6175042;28;83440;-63
2023/12/09 09:17:58;;;;;;;25.85;15.27;;;23.10;38.10;;;;;;6172768;28;85345;-63
2023/12/09 09:20:58;;;;;;;24.13;16.48;;;23.10;38.10;;;;;;6175047;28;83410;-59
2023/12/09 09:23:59;;;;;;;28.20;17.17;;;23.10;37.70;;;;;;6173024;28;83665;-61
2023/12/09 09:26:59;;;;;;;28.48;17.48;;;23.20;37.90;;;;;;6170526;28;83710;-60
2023/12/09 09:30:00;;;;;;;25.15;17.70;;;23.10;37.90;;;;;;6165288;28;85615;-62
2023/12/09 09:33:00;;;;;;;25.13;15.23;;;23.20;37.80;;;;;;6162670;28;83007;-60
2023/12/09 09:36:01;;;;;;;27.45;16.13;;;23.20;38.10;;;;;;6166414;28;83493;-62
2023/12/09 09:39:01;;;;;;;24.95;16.25;;;23.20;38.00;;;;;;6171034;28;83716;-62
2023/12/09 09:42:02;;;;;;;25.20;15.43;;;23.20;37.90;;;;;;6173587;28;83423;-61
2023/12/09 09:45:05;;;;;;;25.10;16.17;;;23.20;38.00;;;;;;6173176;28;83248;-66
2023/12/09 09:48:05;;;;;;;27.30;16.77;;;23.20;38.10;;;;;;6167422;28;85916;-60
2023/12/09 09:51:06;;;;;;;26.73;16.38;;;23.20;38.00;;;;;;6164206;28;86094;-62
2023/12/09 09:54:06;;;;;;;30.88;16.95;;;23.20;37.60;;;;;;6177028;28;84179;-62
2023/12/09 09:57:08;;;;;;;30.42;16.52;;;23.20;37.70;;;;;;6168787;28;84145;-62
2023/12/09 10:00:15;;;;;;;26.42;15.18;;;23.20;37.50;;;;;;6168253;28;82854;-59
2023/12/09 10:03:16;;;;;;;24.20;17.20;;;23.20;37.90;;;;;;6159199;28;83129;-63
2023/12/09 10:06:16;;;;;;;24.15;16.20;;;23.20;37.50;;;;;;6177100;28;84001;-65
2023/12/09 10:09:17;;;;;;;23.95;16.23;;;23.20;37.70;;;;;;6178307;28;83539;-64
2023/12/09 10:12:17;;;;;;;24.42;15.73;;;23.20;37.50;;;;;;6178341;28;83032;-63
2023/12/09 10:15:18;;;;;;;24.20;16.20;;;23.20;37.20;;;;;;6175473;28;82913;-62
2023/12/09 10:18:18;;;;;;;23.85;16.60;;;23.20;37.30;;;;;;6177813;28;83024;-62
2023/12/09 10:21:19;;;;;;;25.45;16.75;;;23.20;37.30;;;;;;6179109;28;83441;-63
2023/12/09 10:24:19;;;;;;;25.85;17.38;;;23.20;37.20;;;;;;6178377;28;82954;-63
2023/12/09 10:27:20;;;;;;;26.05;16.75;;;23.20;37.20;;;;;;6178370;28;83267;-63
2023/12/09 10:30:20;;;;;;;27.08;17.02;;;23.20;36.90;;;;;;6174046;28;86631;-62
2023/12/09 10:33:21;;;;;;;27.17;17.45;;;23.20;37.10;;;;;;6165157;28;84011;-62
2023/12/09 10:36:21;;;;;;;25.40;17.23;;;23.20;36.90;;;;;;6177609;28;85655;-62
2023/12/09 10:39:22;;;;;;;26.52;17.00;;;23.20;37.10;;;;;;6175254;28;83687;-62
2023/12/09 10:42:23;;;;;;;24.77;16.67;;;23.20;37.10;;;;;;6177019;28;83030;-62
2023/12/09 10:45:24;;;;;;;26.40;17.35;;;23.20;36.90;;;;;;6172721;28;83954;-62
2023/12/09 10:48:25;;;;;;;24.60;17.45;;;23.10;37.00;;;;;;6176006;28;84139;-62
2023/12/09 10:51:26;;;;;;;26.13;17.30;;;23.10;36.90;;;;;;6176669;28;83026;-63
2023/12/09 10:54:26;;;;;;;28.05;19.02;;;23.10;37.30;;;;;;6192925;28;82990;-59
2023/12/09 10:57:27;;;;;;;23.23;17.27;;;23.10;36.70;;;;;;6154164;28;82759;-60
2023/12/09 11:00:30;;;;;;;24.98;17.73;;;23.10;37.00;;;;;;6149534;28;83472;-60
2023/12/09 11:03:31;;;;;;;25.63;18.52;;;23.10;36.90;;;;;;6151120;28;84572;-60
2023/12/09 11:06:31;;;;;;;24.60;17.08;;;23.10;37.20;;;;;;6152588;28;82924;-60
2023/12/09 11:09:32;;;;;;;26.55;17.52;;;23.10;36.80;;;;;;6154626;28;85332;-61
2023/12/09 11:12:32;;;;;;;25.33;17.75;;;23.10;37.50;;;;;;6154159;28;83097;-60
2023/12/09 11:15:33;;;;;;;29.52;17.35;;;23.10;36.90;;;;;;6150570;28;82884;-60
2023/12/09 11:18:33;;;;;;;29.27;18.92;;;23.00;36.50;;;;;;6152915;28;83213;-61
2023/12/09 11:21:33;;;;;;;25.30;18.40;;;23.10;36.40;;;;;;6153013;28;83373;-61
2023/12/09 11:24:34;;;;;;;27.98;18.65;;;23.00;36.10;;;;;;6151941;28;82846;-61
2023/12/09 11:27:34;;;;;;;26.10;18.83;;;23.00;36.10;;;;;;6147660;28;84006;-63
2023/12/09 11:30:36;;;;;;;32.22;19.63;;;23.00;36.00;;;;;;6152641;28;82950;-65
2023/12/09 11:33:36;;;;;;;31.92;21.08;;;23.00;36.00;;;;;;6146866;28;83492;-61
2023/12/09 11:36:38;;;;;;;32.80;21.77;;;23.00;35.80;;;;;;6153860;28;83915;-60
2023/12/09 11:39:40;;;;;;;34.85;21.63;;;23.00;35.90;;;;;;6150653;28;83018;-62
2023/12/09 11:42:41;;;;;;;33.15;21.48;;;23.00;35.90;;;;;;6146134;28;83862;-62
2023/12/09 11:45:41;;;;;;;34.55;21.88;;;23.00;36.20;;;;;;6152240;28;83133;-61
2023/12/09 11:48:42;;;;;;;37.10;23.83;;;22.90;36.80;;;;;;6142938;28;83809;-60
2023/12/09 11:51:42;;;;;;;32.67;22.52;;;22.90;36.90;;;;;;6152205;28;83072;-62
2023/12/09 11:54:43;;;;;;;36.15;22.95;;;22.90;37.20;;;;;;6150281;28;83303;-60
2023/12/09 11:57:43;;;;;;;37.53;24.45;;;22.80;37.20;;;;;;6147760;28;85402;-59
2023/12/09 12:00:44;;;;;;;33.75;24.13;;;22.80;37.50;;;;;;6144132;28;83804;-59
2023/12/09 12:03:44;;;;;;;38.33;24.50;;;22.80;37.80;;;;;;6150844;28;83271;-61
2023/12/09 12:06:45;;;;;;;40.05;26.27;;;22.80;38.20;;;;;;6151266;28;83114;-60
2023/12/09 12:09:45;;;;;;;36.47;24.48;;;22.80;38.50;;;;;;6149728;28;84201;-59
2023/12/09 12:12:46;;;;;;;37.78;24.30;;;22.70;38.40;;;;;;6150656;28;83137;-60
2023/12/09 12:15:46;;;;;;;45.03;24.90;;;22.70;38.90;;;;;;6150182;28;83387;-63
2023/12/09 12:18:47;;;;;;;37.10;24.27;;;22.70;38.90;;;;;;6168804;28;87275;-62
2023/12/09 12:21:47;;;;;;;39.90;25.63;;;22.70;39.30;;;;;;6148668;28;83759;-60
2023/12/09 12:24:48;;;;;;;38.65;24.38;;;22.70;39.60;;;;;;6149771;28;83295;-61
2023/12/09 12:27:49;;;;;;;36.00;23.80;;;22.80;39.70;;;;;;6148254;28;83450;-58
2023/12/09 12:30:49;;;;;;;38.58;24.17;;;22.80;39.40;;;;;;6148669;28;83547;-61
2023/12/09 12:33:50;;;;;;;36.75;23.42;;;22.80;39.90;;;;;;6148504;28;84944;-61
2023/12/09 12:36:50;;;;;;;33.20;22.13;;;22.80;40.20;;;;;;6145709;28;83319;-61
2023/12/09 12:39:51;;;;;;;37.55;23.13;;;22.80;40.10;;;;;;6150277;28;83799;-60
2023/12/09 12:42:52;;;;;;;34.13;22.15;;;22.90;40.20;;;;;;6148607;28;83554;-61
2023/12/09 12:45:52;;;;;;;34.88;21.67;;;22.90;40.90;;;;;;6148825;28;84162;-61
2023/12/09 12:48:53;;;;;;;37.85;22.17;;;22.90;40.60;;;;;;6151497;28;83437;-61
2023/12/09 12:51:54;;;;;;;29.77;19.63;;;23.00;41.10;;;;;;6153837;28;83694;-61
2023/12/09 12:54:54;;;;;;;35.58;22.25;;;23.00;40.90;;;;;;6143787;28;83021;-62
2023/12/09 12:57:55;;;;;;;32.85;20.30;;;23.00;40.70;;;;;;6147018;28;83476;-61
2023/12/09 13:00:56;;;;;;;34.88;21.40;;;23.00;40.50;;;;;;6152808;28;83370;-62
2023/12/09 13:03:56;;;;;;;31.27;20.58;;;23.00;40.50;;;;;;6124389;28;85726;-60
2023/12/09 13:06:57;;;;;;;35.85;22.48;;;23.10;41.20;;;;;;6138979;28;89825;-63
2023/12/09 13:09:57;;;;;;;35.70;22.00;;;23.10;40.50;;;;;;6151006;28;84934;-62
2023/12/09 13:12:58;;;;;;;37.90;22.45;;;23.10;40.30;;;;;;6146406;28;82955;-64
2023/12/09 13:15:58;;;;;;;34.88;21.95;;;23.10;40.50;;;;;;6142865;28;84698;-65
2023/12/09 13:18:59;;;;;;;38.55;24.75;;;23.20;40.30;;;;;;6142047;28;83183;-60
2023/12/09 13:21:59;;;;;;;45.00;24.33;;;23.10;40.40;;;;;;6137000;28;85065;-61
2023/12/09 13:25:00;;;;;;;43.45;25.02;;;23.20;41.30;;;;;;6148476;28;82935;-63
2023/12/09 13:28:00;;;;;;;38.90;22.80;;;23.20;41.70;;;;;;6149100;28;83454;-61
2023/12/09 13:31:00;;;;;;;37.72;23.77;;;23.30;42.70;;;;;;6135195;28;83466;-61
2023/12/09 13:34:01;;;;;;;42.30;23.92;;;23.30;42.90;;;;;;6146784;28;82902;-61
2023/12/09 13:37:02;;;;;;;40.60;24.02;;;23.30;44.00;;;;;;6146833;28;84389;-62
2023/12/09 13:40:03;;;;;;;39.03;23.92;;;23.40;44.60;;;;;;6138607;28;83430;-62
2023/12/09 13:43:03;;;;;;;41.35;25.13;;;23.40;46.50;;;;;;6148023;28;84113;-64
2023/12/09 13:46:04;;;;;;;49.45;25.73;;;23.50;49.20;;;;;;6147030;28;83987;-65
2023/12/09 13:49:05;;;;;;;47.72;25.67;;;23.50;48.70;;;;;;6152770;28;84874;-64
2023/12/09 13:52:05;;;;;;;45.30;25.83;;;23.50;46.80;;;;;;6150625;28;84103;-60
2023/12/09 13:55:06;;;;;;;44.60;26.40;;;23.50;46.70;;;;;;6153672;28;83131;-64
2023/12/09 13:58:06;;;;;;;40.53;24.80;;;23.50;46.30;;;;;;6152740;28;85304;-66
2023/12/09 14:01:07;;;;;;;42.63;25.10;;;23.50;46.30;;;;;;6152807;28;83097;-63
2023/12/09 14:04:08;;;;;;;42.05;24.75;;;23.50;46.20;;;;;;6153263;28;83238;-61
2023/12/09 14:07:09;;;;;;;45.05;25.30;;;23.50;46.90;;;;;;6152415;28;82983;-62
2023/12/09 14:10:09;;;;;;;37.28;23.75;;;23.50;46.10;;;;;;6152663;28;83660;-61
2023/12/09 14:13:10;;;;;;;37.42;22.50;;;23.50;45.80;;;;;;6129835;28;84934;-61
2023/12/09 14:16:10;;;;;;;37.20;23.88;;;23.50;45.50;;;;;;6135427;28;83126;-61
2023/12/09 14:19:11;;;;;;;34.10;22.27;;;23.50;45.10;;;;;;6132340;28;84741;-61
2023/12/09 14:22:11;;;;;;;33.78;21.77;;;23.50;44.90;;;;;;6141077;28;83027;-61
2023/12/09 14:25:12;;;;;;;33.95;21.88;;;23.50;44.50;;;;;;6139037;28;84140;-61
2023/12/09 14:28:14;;;;;;;34.28;22.05;;;23.50;44.30;;;;;;6136638;28;85493;-65
2023/12/09 14:31:14;;;;;;;32.15;21.27;;;23.50;44.40;;;;;;6146719;28;83602;-63
2023/12/09 14:34:15;;;;;;;32.65;21.38;;;23.50;43.80;;;;;;6145229;28;83223;-62
2023/12/09 14:37:15;;;;;;;35.45;22.58;;;23.50;43.70;;;;;;6146683;28;83380;-63
2023/12/09 14:40:16;;;;;;;35.80;23.52;;;23.50;43.50;;;;;;6146748;28;83511;-63
2023/12/09 14:43:16;;;;;;;37.08;22.70;;;23.40;43.00;;;;;;6144200;28;83315;-61
2023/12/09 14:46:17;;;;;;;40.90;23.58;;;23.40;42.70;;;;;;6144886;28;82984;-63
2023/12/09 14:49:17;;;;;;;38.95;23.73;;;23.40;42.50;;;;;;6369696;23;84990;-67
2023/12/09 14:52:18;;;;;;;38.90;23.27;;;23.40;42.60;;;;;;6109069;28;85651;-67
2023/12/09 14:55:18;;;;;;;35.67;22.55;;;23.30;42.60;;;;;;6419245;22;85227;-63
2023/12/09 14:58:19;;;;;;;39.75;23.02;;;23.30;42.70;;;;;;6189195;28;83645;-64
2023/12/09 15:01:19;;;;;;;38.03;23.83;;;23.30;42.80;;;;;;6196926;28;82872;-63
2023/12/09 15:04:20;;;;;;;39.17;24.95;;;23.30;42.80;;;;;;6194519;28;83465;-63
2023/12/09 15:07:22;;;;;;;38.08;24.67;;;23.20;42.60;;;;;;6165079;28;86121;-63
2023/12/09 15:10:23;;;;;;;44.58;26.70;;;23.20;42.20;;;;;;6188913;28;86160;-73
2023/12/09 15:13:24;;;;;;;45.60;24.17;;;23.20;42.30;;;;;;6194280;28;84277;-72
2023/12/09 15:16:24;;;;;;;41.88;25.00;;;23.20;42.20;;;;;;6194708;28;83045;-70